Airfield :
LOGIN :

Register | Disclaimer

   EN    FR    IT 

 










Legend :    VFR   Marginal VFR   IFR   Intensive IFR   Very Intensive IFR
Visi :
Ceiling :
>= 8 km
>= 3000ft
5 to 8 km
1000 to 3000 ft
1500m to 5 km
500 to 1000 ft
800 to 1500m
200 to 500 ft
< 800m
< 200 ft
Symbols :   Thunderstorms  Fog  Heavy snow  Heavy precipitations  Wind > 20 kt
SIGMETs :     Misc.  Thunderstorms  Icing  Turbulence  Mountain Waves  Volcanic Ashes






- Airport Elevation : 286 ft
- IATA code : FFD


EGVA - RAF Fairford

CURRENT METAR :
  • 190455Z AUTO 00000KT 9999 CLR 15/13 A3003 RMK AO2 SLP171 T01520134 $

EXPIRED METARs :
  • 190355Z AUTO 00000KT 9999 CLR 15/13 A3003 RMK AO2 SLP171 T01480132 $
  • 190255Z AUTO 00000KT 9999 CLR 15/13 A3003 RMK AO2 DZE18 SLP171 P0000 60000 T01460128 58008 $
  • 190218Z AUTO 00000KT 9999 CLR 16/14 A3004 RMK AO2 DZE18 SLP175 $
  • 190155Z AUTO 00000KT 9999 -DZ FEW100 16/13 A3005 RMK AO2 DZB49 SLP178 P0000 T01570134 $
  • 190149Z AUTO 00000KT 9999 -DZ FEW100 16/13 A3005 RMK AO2 DZB49 SLP178 $
  • 190055Z AUTO 00000KT 9999 CLR 17/13 A3005 RMK AO2 SLP178 T01660131 $

TAF TAF EGVA
Valid from the 18 at 22:00 until the 20 at 04:00 UTC


182230Z 1822/2004 VRB06KT 9999 FEW090 QNH3002INS
BECMG 1908/1909 19006KT 9999 BKN080 QNH2997INS
BECMG 1914/1915 21010G15KT 9999 BKN075 QNH2990INS
BECMG 1918/1919 21010KT 9999 SKC QNH2987INS
TEMPO 2001/2002 19006KT 9999 BKN020 QNH2982INS TX27/1914Z TN14/1903Z



MET'MAP, your aeronautical weather chart ! - Copyright ORBIFLY December 2007 - Disclaimer

ORBIFLY MET'MAP TEAM :

Programming & Development : Alexandra Zaïnal
Original concept : Baudouin d'Aumeries
Technical & hardware support : Manuel Goepfert
Assistance : Marc-Olivier Méhu




SOURCES & CREDITS :

   NOAA